sensor_id;sensor_type;location;lat;lon;timestamp;temperature;humidity
72646;DHT22;60687;53.876;10.674;2023-09-08T00:06:01;19.30;92.30
72646;DHT22;60687;53.876;10.674;2023-09-08T00:16:05;19.20;92.20
72646;DHT22;60687;53.876;10.674;2023-09-08T00:26:09;19.10;92.30
72646;DHT22;60687;53.876;10.674;2023-09-08T00:36:13;19.10;92.40
72646;DHT22;60687;53.876;10.674;2023-09-08T00:46:16;19.00;92.40
72646;DHT22;60687;53.876;10.674;2023-09-08T00:56:20;18.90;92.50
72646;DHT22;60687;53.876;10.674;2023-09-08T01:06:23;18.80;92.60
72646;DHT22;60687;53.876;10.674;2023-09-08T01:16:27;18.80;92.60
72646;DHT22;60687;53.876;10.674;2023-09-08T01:26:34;18.70;92.80
72646;DHT22;60687;53.876;10.674;2023-09-08T01:36:38;18.60;93.20
72646;DHT22;60687;53.876;10.674;2023-09-08T01:46:42;18.50;92.80
72646;DHT22;60687;53.876;10.674;2023-09-08T01:56:45;18.40;93.00
72646;DHT22;60687;53.876;10.674;2023-09-08T02:06:49;18.30;93.10
72646;DHT22;60687;53.876;10.674;2023-09-08T02:16:51;18.20;93.30
72646;DHT22;60687;53.876;10.674;2023-09-08T02:26:56;18.20;93.30
72646;DHT22;60687;53.876;10.674;2023-09-08T02:36:59;18.10;93.40
72646;DHT22;60687;53.876;10.674;2023-09-08T02:47:03;18.00;93.10
72646;DHT22;60687;53.876;10.674;2023-09-08T02:57:08;18.00;93.60
72646;DHT22;60687;53.876;10.674;2023-09-08T03:07:12;17.90;93.70
72646;DHT22;60687;53.876;10.674;2023-09-08T03:17:14;17.80;94.10
72646;DHT22;60687;53.876;10.674;2023-09-08T03:27:18;17.70;94.20
72646;DHT22;60687;53.876;10.674;2023-09-08T03:37:21;17.60;93.90
72646;DHT22;60687;53.876;10.674;2023-09-08T03:47:25;17.60;94.30
72646;DHT22;60687;53.876;10.674;2023-09-08T03:57:28;17.40;94.50
72646;DHT22;60687;53.876;10.674;2023-09-08T04:07:32;17.40;94.70
72646;DHT22;60687;53.876;10.674;2023-09-08T04:17:35;17.30;94.90
72646;DHT22;60687;53.876;10.674;2023-09-08T04:27:39;17.20;94.80
72646;DHT22;60687;53.876;10.674;2023-09-08T04:37:42;17.00;95.60
72646;DHT22;60687;53.876;10.674;2023-09-08T04:47:46;16.90;95.70
72646;DHT22;60687;53.876;10.674;2023-09-08T04:57:49;16.90;95.90
72646;DHT22;60687;53.876;10.674;2023-09-08T05:07:53;16.80;95.60
72646;DHT22;60687;53.876;10.674;2023-09-08T05:17:58;16.70;96.30
72646;DHT22;60687;53.876;10.674;2023-09-08T05:28:03;16.70;96.50
72646;DHT22;60687;53.876;10.674;2023-09-08T05:38:06;16.70;96.10
72646;DHT22;60687;53.876;10.674;2023-09-08T05:48:10;16.70;97.00
72646;DHT22;60687;53.876;10.674;2023-09-08T05:58:13;16.80;97.00
72646;DHT22;60687;53.876;10.674;2023-09-08T06:08:16;16.80;97.30
72646;DHT22;60687;53.876;10.674;2023-09-08T06:18:19;17.00;96.90
72646;DHT22;60687;53.876;10.674;2023-09-08T06:28:24;17.20;97.60
72646;DHT22;60687;53.876;10.674;2023-09-08T06:38:27;17.40;96.40
72646;DHT22;60687;53.876;10.674;2023-09-08T06:48:35;17.70;95.30
72646;DHT22;60687;53.876;10.674;2023-09-08T06:58:37;17.90;94.80
72646;DHT22;60687;53.876;10.674;2023-09-08T07:08:42;18.30;93.60
72646;DHT22;60687;53.876;10.674;2023-09-08T07:18:45;18.60;93.20
72646;DHT22;60687;53.876;10.674;2023-09-08T07:28:49;18.90;92.60
72646;DHT22;60687;53.876;10.674;2023-09-08T07:38:53;19.30;92.40
72646;DHT22;60687;53.876;10.674;2023-09-08T07:48:58;19.70;91.20
72646;DHT22;60687;53.876;10.674;2023-09-08T07:59:00;20.10;90.50
72646;DHT22;60687;53.876;10.674;2023-09-08T08:09:05;20.60;86.90
72646;DHT22;60687;53.876;10.674;2023-09-08T08:19:07;20.90;86.80
72646;DHT22;60687;53.876;10.674;2023-09-08T08:29:12;21.30;84.30
72646;DHT22;60687;53.876;10.674;2023-09-08T08:39:14;21.70;80.90
72646;DHT22;60687;53.876;10.674;2023-09-08T08:49:18;22.10;79.00
72646;DHT22;60687;53.876;10.674;2023-09-08T08:59:22;22.50;76.20
72646;DHT22;60687;53.876;10.674;2023-09-08T09:09:28;22.90;73.90
72646;DHT22;60687;53.876;10.674;2023-09-08T09:19:31;23.30;72.30
72646;DHT22;60687;53.876;10.674;2023-09-08T09:29:44;23.70;71.90
72646;DHT22;60687;53.876;10.674;2023-09-08T09:39:48;24.10;69.10
72646;DHT22;60687;53.876;10.674;2023-09-08T10:40:22;24.50;69.00
72646;DHT22;60687;53.876;10.674;2023-09-08T11:00:45;26.60;51.10
72646;DHT22;60687;53.876;10.674;2023-09-08T15:22:31;26.90;50.10
72646;DHT22;60687;53.876;10.674;2023-09-08T15:32:35;27.10;45.60
72646;DHT22;60687;53.876;10.674;2023-09-08T15:42:40;27.00;46.30
72646;DHT22;60687;53.876;10.674;2023-09-08T15:52:44;26.90;46.30
72646;DHT22;60687;53.876;10.674;2023-09-08T16:02:46;26.90;46.50
72646;DHT22;60687;53.876;10.674;2023-09-08T16:12:50;26.90;47.30
72646;DHT22;60687;53.876;10.674;2023-09-08T16:22:54;26.70;47.50
72646;DHT22;60687;53.876;10.674;2023-09-08T16:32:58;26.60;47.50
72646;DHT22;60687;53.876;10.674;2023-09-08T16:43:01;26.60;47.10
72646;DHT22;60687;53.876;10.674;2023-09-08T16:53:06;26.50;47.90
72646;DHT22;60687;53.876;10.674;2023-09-08T17:03:10;26.40;48.60
72646;DHT22;60687;53.876;10.674;2023-09-08T17:13:15;26.20;49.30
72646;DHT22;60687;53.876;10.674;2023-09-08T17:23:18;26.10;51.30
72646;DHT22;60687;53.876;10.674;2023-09-08T17:33:23;25.90;52.40
72646;DHT22;60687;53.876;10.674;2023-09-08T17:43:26;25.80;53.70
72646;DHT22;60687;53.876;10.674;2023-09-08T17:53:30;25.50;54.90
72646;DHT22;60687;53.876;10.674;2023-09-08T18:03:45;25.30;56.40
72646;DHT22;60687;53.876;10.674;2023-09-08T18:13:50;25.10;58.00
72646;DHT22;60687;53.876;10.674;2023-09-08T18:23:53;24.90;60.10
72646;DHT22;60687;53.876;10.674;2023-09-08T18:33:57;24.70;60.30
72646;DHT22;60687;53.876;10.674;2023-09-08T18:44:00;24.40;60.90
72646;DHT22;60687;53.876;10.674;2023-09-08T18:54:05;24.20;61.90
72646;DHT22;60687;53.876;10.674;2023-09-08T19:04:07;24.00;62.30
72646;DHT22;60687;53.876;10.674;2023-09-08T19:14:15;23.80;63.20
72646;DHT22;60687;53.876;10.674;2023-09-08T19:24:41;23.60;64.20
72646;DHT22;60687;53.876;10.674;2023-09-08T19:34:45;23.40;64.80
72646;DHT22;60687;53.876;10.674;2023-09-08T19:44:47;23.20;65.30
72646;DHT22;60687;53.876;10.674;2023-09-08T19:54:51;23.00;66.10
72646;DHT22;60687;53.876;10.674;2023-09-08T20:45:10;22.80;67.00
72646;DHT22;60687;53.876;10.674;2023-09-08T20:55:14;22.10;71.10
72646;DHT22;60687;53.876;10.674;2023-09-08T21:05:17;22.00;72.10
72646;DHT22;60687;53.876;10.674;2023-09-08T21:15:21;21.80;72.30
72646;DHT22;60687;53.876;10.674;2023-09-08T21:25:24;21.70;72.90
72646;DHT22;60687;53.876;10.674;2023-09-08T21:35:28;21.60;73.70
72646;DHT22;60687;53.876;10.674;2023-09-08T21:45:32;21.40;74.10
72646;DHT22;60687;53.876;10.674;2023-09-08T21:55:35;21.30;73.90
72646;DHT22;60687;53.876;10.674;2023-09-08T22:05:39;21.10;74.50
72646;DHT22;60687;53.876;10.674;2023-09-08T22:15:44;21.00;74.40
72646;DHT22;60687;53.876;10.674;2023-09-08T22:25:46;20.80;75.10
72646;DHT22;60687;53.876;10.674;2023-09-08T22:35:50;20.70;75.40
72646;DHT22;60687;53.876;10.674;2023-09-08T22:45:53;20.60;75.70
72646;DHT22;60687;53.876;10.674;2023-09-08T22:55:57;20.50;75.60
72646;DHT22;60687;53.876;10.674;2023-09-08T23:05:59;20.40;76.10
72646;DHT22;60687;53.876;10.674;2023-09-08T23:16:03;20.30;76.20
72646;DHT22;60687;53.876;10.674;2023-09-08T23:26:07;20.20;76.20
72646;DHT22;60687;53.876;10.674;2023-09-08T23:36:11;20.10;76.50
72646;DHT22;60687;53.876;10.674;2023-09-08T23:46:13;20.00;76.50
72646;DHT22;60687;53.876;10.674;2023-09-08T23:56:17;19.90;76.40
